createdAt,value
2018-08-22T00:00:25.610Z,0.00
2018-08-22T00:01:25.704Z,0.00
2018-08-22T00:02:25.690Z,0.00
2018-08-22T00:03:25.743Z,0.00
2018-08-22T00:04:25.797Z,0.00
2018-08-22T00:05:25.844Z,0.00
2018-08-22T00:06:25.923Z,0.00
2018-08-22T00:07:25.948Z,0.00
2018-08-22T00:08:25.998Z,0.00
2018-08-22T00:09:26.051Z,0.00
2018-08-22T00:10:26.102Z,0.00
2018-08-22T00:11:26.178Z,0.00
2018-08-22T00:12:26.203Z,0.00
2018-08-22T00:13:26.255Z,0.00
2018-08-22T00:14:26.306Z,0.00
2018-08-22T00:15:26.357Z,0.00
2018-08-22T00:16:26.432Z,0.00
2018-08-22T00:17:26.461Z,0.00
2018-08-22T00:18:26.511Z,0.00
2018-08-22T00:19:26.563Z,0.00
2018-08-22T00:20:26.614Z,0.00
2018-08-22T00:21:26.699Z,0.00
2018-08-22T00:22:26.724Z,0.00
2018-08-22T00:23:26.769Z,0.00
2018-08-22T00:24:26.821Z,0.00
2018-08-22T00:25:26.885Z,0.00
2018-08-22T00:26:26.951Z,0.00
2018-08-22T00:27:26.975Z,0.00
2018-08-22T00:28:27.050Z,0.00
2018-08-22T00:29:27.078Z,0.00
2018-08-22T00:30:27.127Z,0.00
2018-08-22T00:31:27.180Z,0.00
2018-08-22T00:32:27.237Z,0.00
2018-08-22T00:33:27.307Z,0.00
2018-08-22T00:34:27.338Z,0.00
2018-08-22T00:35:27.386Z,0.00
2018-08-22T00:36:27.443Z,0.00
2018-08-22T00:37:27.488Z,0.00
2018-08-22T00:38:27.564Z,0.00
2018-08-22T00:39:27.593Z,0.00
2018-08-22T00:40:27.641Z,0.00
2018-08-22T00:41:27.694Z,0.00
2018-08-22T00:42:27.747Z,0.00
2018-08-22T00:43:27.822Z,0.00
2018-08-22T00:44:27.846Z,0.00
2018-08-22T00:45:27.899Z,0.00
2018-08-22T00:46:27.951Z,0.00
2018-08-22T00:47:28.002Z,0.00
2018-08-22T00:48:28.076Z,0.00
2018-08-22T00:49:28.128Z,0.00
2018-08-22T00:50:28.156Z,0.00
2018-08-22T00:51:28.206Z,0.00
2018-08-22T00:52:28.259Z,0.00
2018-08-22T00:53:28.308Z,0.00
2018-08-22T00:54:28.386Z,0.00
2018-08-22T00:55:28.418Z,0.00
2018-08-22T00:56:28.464Z,0.00
2018-08-22T00:57:28.521Z,0.00
2018-08-22T00:58:28.595Z,0.00
2018-08-22T00:59:28.619Z,0.00
2018-08-22T01:00:28.667Z,0.00
2018-08-22T01:01:28.718Z,0.00
2018-08-22T01:02:28.771Z,0.00
2018-08-22T01:03:28.851Z,0.00
2018-08-22T01:04:28.876Z,0.00
2018-08-22T01:05:28.950Z,0.00
2018-08-22T01:06:28.975Z,0.00
2018-08-22T01:07:29.030Z,0.00
2018-08-22T01:08:29.081Z,0.00
2018-08-22T01:09:29.129Z,0.00
2018-08-22T01:10:29.205Z,0.00
2018-08-22T01:11:29.232Z,0.00
2018-08-22T01:12:29.282Z,0.00
2018-08-22T01:13:29.338Z,0.00
2018-08-22T01:14:29.409Z,0.00
2018-08-22T01:15:29.461Z,0.00
2018-08-22T01:16:29.488Z,0.00
2018-08-22T01:17:29.537Z,0.00
2018-08-22T01:18:29.589Z,0.00
2018-08-22T01:19:29.666Z,0.00
2018-08-22T01:20:29.718Z,0.00
2018-08-22T01:21:29.744Z,0.00
2018-08-22T01:22:29.794Z,0.00
2018-08-22T01:23:29.847Z,0.00
2018-08-22T01:24:29.926Z,0.00
2018-08-22T01:25:29.948Z,0.00
2018-08-22T01:26:29.999Z,0.00
2018-08-22T01:27:30.050Z,0.00
2018-08-22T01:28:30.104Z,0.00
2018-08-22T01:29:30.182Z,0.00
2018-08-22T01:30:30.206Z,0.00
2018-08-22T01:31:30.260Z,0.00
2018-08-22T01:32:30.306Z,0.00
2018-08-22T01:33:30.359Z,0.00
2018-08-22T01:34:30.432Z,0.00
2018-08-22T01:35:30.461Z,0.00
2018-08-22T01:36:30.535Z,0.00
2018-08-22T01:37:30.560Z,0.00
2018-08-22T01:38:30.611Z,0.00
2018-08-22T01:39:30.662Z,0.00
2018-08-22T01:40:30.715Z,0.00
2018-08-22T01:41:30.788Z,0.00
2018-08-22T01:42:30.815Z,0.00
2018-08-22T01:43:30.870Z,0.00
2018-08-22T01:44:30.917Z,0.00
2018-08-22T01:45:30.971Z,0.00
2018-08-22T01:46:31.045Z,0.00
2018-08-22T01:47:31.073Z,0.00
2018-08-22T01:48:31.124Z,0.00
2018-08-22T01:49:31.175Z,0.00
2018-08-22T01:50:31.224Z,0.00
2018-08-22T01:51:31.299Z,0.00
2018-08-22T01:52:31.325Z,0.00
2018-08-22T01:53:31.376Z,0.00
2018-08-22T01:54:31.429Z,0.00
2018-08-22T01:55:31.503Z,0.00
2018-08-22T01:56:31.529Z,0.00
2018-08-22T01:57:31.583Z,0.00
2018-08-22T01:58:31.634Z,0.00
2018-08-22T01:59:31.684Z,0.00
2018-08-22T02:00:31.777Z,0.00
2018-08-22T02:01:31.788Z,0.00
2018-08-22T02:02:31.837Z,0.00
2018-08-22T02:03:31.889Z,0.00
2018-08-22T02:04:31.941Z,0.00
2018-08-22T02:05:32.039Z,0.00
2018-08-22T02:06:32.045Z,0.00
2018-08-22T02:07:32.091Z,0.00
2018-08-22T02:08:32.146Z,0.00
2018-08-22T02:09:32.192Z,0.00
2018-08-22T02:10:32.288Z,0.00
2018-08-22T02:11:32.295Z,0.00
2018-08-22T02:12:32.347Z,0.00
2018-08-22T02:13:32.396Z,0.00
2018-08-22T02:14:32.447Z,0.00
2018-08-22T02:15:32.524Z,0.00
2018-08-22T02:16:32.549Z,0.00
2018-08-22T02:17:32.627Z,0.00
2018-08-22T02:18:32.654Z,0.00
2018-08-22T02:19:32.707Z,0.00
2018-08-22T02:20:32.753Z,0.00
2018-08-22T02:21:32.805Z,0.00
2018-08-22T02:22:32.877Z,0.00
2018-08-22T02:23:32.913Z,0.00
2018-08-22T02:24:32.961Z,0.00
2018-08-22T02:25:33.007Z,0.00
2018-08-22T02:26:33.083Z,0.00
2018-08-22T02:27:33.117Z,0.00
2018-08-22T02:28:33.159Z,0.00
2018-08-22T02:29:33.211Z,0.00
2018-08-22T02:30:33.261Z,0.00
2018-08-22T02:31:33.337Z,0.00
2018-08-22T02:32:33.364Z,0.00
2018-08-22T02:33:33.439Z,0.00
2018-08-22T02:34:33.465Z,0.00
2018-08-22T02:35:33.518Z,0.00
2018-08-22T02:36:33.572Z,0.00
2018-08-22T02:37:33.621Z,0.00
2018-08-22T02:38:33.693Z,0.00
2018-08-22T02:39:33.720Z,0.00
2018-08-22T02:40:33.772Z,0.00
2018-08-22T02:41:33.822Z,0.00
2018-08-22T02:42:33.907Z,0.00
2018-08-22T02:43:33.955Z,0.00
2018-08-22T02:44:33.975Z,0.00
2018-08-22T02:45:34.028Z,0.00
2018-08-22T02:46:34.076Z,0.00
2018-08-22T02:47:34.125Z,0.00
2018-08-22T02:48:34.201Z,0.00
2018-08-22T02:49:34.228Z,0.00
2018-08-22T02:50:34.282Z,0.00
2018-08-22T02:51:34.333Z,0.00
2018-08-22T02:52:34.411Z,0.00
2018-08-22T02:53:34.431Z,0.00
2018-08-22T02:54:34.506Z,0.00
2018-08-22T02:55:34.534Z,0.00
2018-08-22T02:56:34.586Z,0.00
2018-08-22T02:57:34.636Z,0.00
2018-08-22T02:58:34.685Z,0.00
2018-08-22T02:59:34.772Z,0.00
2018-08-22T03:00:34.790Z,0.00
2018-08-22T03:01:34.838Z,0.00
2018-08-22T03:02:34.891Z,0.00
2018-08-22T03:03:34.942Z,0.00
2018-08-22T03:04:35.023Z,0.00
2018-08-22T03:05:35.043Z,0.00
2018-08-22T03:06:35.095Z,0.00
2018-08-22T03:07:35.145Z,0.00
2018-08-22T03:08:35.232Z,0.00
2018-08-22T03:09:35.271Z,0.00
2018-08-22T03:10:35.300Z,0.00
2018-08-22T03:11:35.353Z,0.00
2018-08-22T03:12:35.399Z,0.00
2018-08-22T03:13:35.452Z,0.00
2018-08-22T03:14:35.524Z,0.00
2018-08-22T03:15:35.575Z,0.00
2018-08-22T03:16:35.605Z,0.00
2018-08-22T03:17:35.654Z,0.00
2018-08-22T03:18:35.704Z,0.00
2018-08-22T03:19:35.791Z,0.00
2018-08-22T03:20:35.804Z,0.00
2018-08-22T03:21:35.878Z,0.00
2018-08-22T03:22:35.909Z,0.00
2018-08-22T03:23:35.959Z,0.00
2018-08-22T03:24:36.052Z,0.00
2018-08-22T03:25:36.059Z,0.00
2018-08-22T03:26:36.112Z,0.00
2018-08-22T03:27:36.161Z,0.00
2018-08-22T03:28:36.211Z,0.00
2018-08-22T03:29:36.289Z,0.00
2018-08-22T03:30:36.314Z,0.00
2018-08-22T03:31:36.366Z,0.00
2018-08-22T03:32:36.416Z,0.00
2018-08-22T03:33:36.466Z,0.00
2018-08-22T03:34:36.549Z,0.00
2018-08-22T03:35:36.569Z,0.00
2018-08-22T03:36:36.620Z,0.00
2018-08-22T03:37:36.670Z,0.00
2018-08-22T03:38:36.721Z,0.00
2018-08-22T03:39:36.813Z,0.00
2018-08-22T03:40:36.823Z,0.00
2018-08-22T03:41:36.876Z,0.00
2018-08-22T03:42:36.927Z,0.00
2018-08-22T03:43:36.975Z,0.00
2018-08-22T03:44:37.057Z,0.00
2018-08-22T03:45:37.082Z,0.00
2018-08-22T03:46:37.132Z,0.00
2018-08-22T03:47:37.181Z,0.00
2018-08-22T03:48:37.229Z,0.00
2018-08-22T03:49:37.314Z,0.00
2018-08-22T03:50:37.333Z,0.00
2018-08-22T03:51:37.385Z,0.00
2018-08-22T03:52:37.434Z,0.00
2018-08-22T03:53:37.489Z,0.00
2018-08-22T03:54:37.556Z,0.00
2018-08-22T03:55:37.589Z,4.00
2018-08-22T03:56:37.660Z,4.00
2018-08-22T03:57:37.688Z,4.00
2018-08-22T03:58:37.737Z,4.00
2018-08-22T03:59:37.793Z,4.00
2018-08-22T04:00:37.838Z,4.00
2018-08-22T04:01:37.911Z,8.00
2018-08-22T04:02:37.939Z,8.00
2018-08-22T04:03:37.993Z,8.00
2018-08-22T04:04:38.043Z,12.00
2018-08-22T04:05:38.095Z,12.00
2018-08-22T04:06:38.168Z,20.00
2018-08-22T04:07:38.193Z,20.00
2018-08-22T04:08:38.253Z,24.00
2018-08-22T04:09:38.296Z,32.00
2018-08-22T04:10:38.346Z,36.00
2018-08-22T04:11:38.425Z,44.00
2018-08-22T04:12:38.448Z,48.00
2018-08-22T04:13:38.498Z,56.00
2018-08-22T04:14:38.549Z,68.00
2018-08-22T04:15:38.599Z,76.00
2018-08-22T04:16:38.676Z,88.00
2018-08-22T04:17:38.701Z,100.00
2018-08-22T04:18:38.753Z,116.00
2018-08-22T04:19:38.802Z,132.00
2018-08-22T04:20:38.851Z,148.00
2018-08-22T04:21:38.946Z,164.00
2018-08-22T04:22:38.955Z,188.00
2018-08-22T04:23:39.005Z,204.00
2018-08-22T04:24:39.057Z,228.00
2018-08-22T04:25:39.107Z,248.00
2018-08-22T04:26:39.184Z,276.00
2018-08-22T04:27:39.216Z,300.00
2018-08-22T04:28:39.257Z,328.00
2018-08-22T04:29:39.309Z,360.00
2018-08-22T04:30:39.358Z,392.00
2018-08-22T04:31:39.453Z,420.00
2018-08-22T04:32:39.464Z,456.00
2018-08-22T04:33:39.517Z,492.00
2018-08-22T04:34:39.561Z,524.00
2018-08-22T04:35:39.614Z,564.00
2018-08-22T04:36:39.705Z,604.00
2018-08-22T04:37:39.715Z,644.00
2018-08-22T04:38:39.770Z,684.00
2018-08-22T04:39:39.815Z,728.00
2018-08-22T04:40:39.866Z,772.00
2018-08-22T04:41:39.970Z,816.00
2018-08-22T04:42:39.967Z,860.00
2018-08-22T04:43:40.018Z,908.00
2018-08-22T04:44:40.070Z,956.00
2018-08-22T04:45:40.121Z,1004.00
2018-08-22T04:46:40.202Z,1060.00
2018-08-22T04:47:40.221Z,1112.00
2018-08-22T04:48:40.270Z,1160.00
2018-08-22T04:49:40.346Z,1216.00
2018-08-22T04:50:40.373Z,1264.00
2018-08-22T04:51:40.422Z,1316.00
2018-08-22T04:52:40.496Z,1368.00
2018-08-22T04:53:40.524Z,1420.00
2018-08-22T04:54:40.602Z,1472.00
2018-08-22T04:55:40.627Z,1520.00
2018-08-22T04:56:40.676Z,1568.00
2018-08-22T04:57:40.728Z,1620.00
2018-08-22T04:58:40.776Z,1672.00
2018-08-22T04:59:40.851Z,1720.00
2018-08-22T05:00:40.882Z,1764.00
2018-08-22T05:01:40.933Z,1816.00
2018-08-22T05:02:40.980Z,1860.00
2018-08-22T05:03:41.032Z,1908.00
2018-08-22T05:04:41.105Z,1952.00
2018-08-22T05:05:41.132Z,2000.00
2018-08-22T05:06:41.183Z,2044.00
2018-08-22T05:07:41.233Z,2092.00
2018-08-22T05:08:41.284Z,2136.00
2018-08-22T05:09:41.360Z,2180.00
2018-08-22T05:10:41.388Z,2228.00
2018-08-22T05:11:41.437Z,2268.00
2018-08-22T05:12:41.489Z,2316.00
2018-08-22T05:13:41.540Z,2360.00
2018-08-22T05:14:41.615Z,2404.00
2018-08-22T05:15:41.640Z,2444.00
2018-08-22T05:16:41.689Z,2488.00
2018-08-22T05:17:41.741Z,2532.00
2018-08-22T05:18:41.792Z,2572.00
2018-08-22T05:19:41.868Z,2616.00
2018-08-22T05:20:41.893Z,2656.00
2018-08-22T05:21:41.942Z,2704.00
2018-08-22T05:22:41.993Z,2748.00
2018-08-22T05:23:42.048Z,2800.00
2018-08-22T05:24:42.137Z,2844.00
2018-08-22T05:25:42.147Z,2896.00
2018-08-22T05:26:42.198Z,2952.00
2018-08-22T05:27:42.247Z,3012.00
2018-08-22T05:28:42.306Z,3068.00
2018-08-22T05:29:42.405Z,3124.00
2018-08-22T05:30:42.400Z,3184.00
2018-08-22T05:31:42.450Z,3244.00
2018-08-22T05:32:42.500Z,3300.00
2018-08-22T05:33:42.551Z,3356.00
2018-08-22T05:34:42.636Z,3412.00
2018-08-22T05:35:42.653Z,3472.00
2018-08-22T05:36:42.703Z,3528.00
2018-08-22T05:37:42.756Z,3584.00
2018-08-22T05:38:42.803Z,3640.00
2018-08-22T05:39:42.886Z,3700.00
2018-08-22T05:40:42.928Z,3760.00
2018-08-22T05:41:42.964Z,3820.00
2018-08-22T05:42:43.008Z,3876.00
2018-08-22T05:43:43.061Z,3932.00
2018-08-22T05:44:43.147Z,3996.00
2018-08-22T05:45:43.162Z,4056.00
2018-08-22T05:46:43.214Z,4108.00
2018-08-22T05:47:43.262Z,4164.00
2018-08-22T05:48:43.314Z,4220.00
2018-08-22T05:49:43.388Z,4280.00
2018-08-22T05:50:43.454Z,4328.00
2018-08-22T05:51:43.465Z,4384.00
2018-08-22T05:52:43.515Z,4440.00
2018-08-22T05:53:43.567Z,4496.00
2018-08-22T05:54:43.617Z,4540.00
2018-08-22T05:55:43.702Z,4600.00
2018-08-22T05:56:43.720Z,4648.00
2018-08-22T05:57:43.798Z,4696.00
2018-08-22T05:58:43.824Z,4752.00
2018-08-22T05:59:43.874Z,4804.00
2018-08-22T06:00:43.950Z,4864.00
2018-08-22T06:01:43.998Z,4924.00
2018-08-22T06:02:44.026Z,4976.00
2018-08-22T06:03:44.076Z,5028.00
2018-08-22T06:04:44.128Z,5080.00
2018-08-22T06:05:44.177Z,5132.00
2018-08-22T06:06:44.254Z,5188.00
2018-08-22T06:07:44.295Z,5236.00
2018-08-22T06:08:44.329Z,5292.00
2018-08-22T06:09:44.385Z,5348.00
2018-08-22T06:10:44.432Z,5400.00
2018-08-22T06:11:44.523Z,5452.00
2018-08-22T06:12:44.539Z,5504.00
2018-08-22T06:13:44.586Z,5552.00
2018-08-22T06:14:44.641Z,5608.00
2018-08-22T06:15:44.737Z,5660.00
2018-08-22T06:16:44.765Z,5708.00
2018-08-22T06:17:44.793Z,5764.00
2018-08-22T06:18:44.845Z,5820.00
2018-08-22T06:19:44.896Z,5880.00
2018-08-22T06:20:44.944Z,5932.00
2018-08-22T06:21:45.023Z,5996.00
2018-08-22T06:22:45.052Z,6052.00
2018-08-22T06:23:45.099Z,6108.00
2018-08-22T06:24:45.149Z,6168.00
2018-08-22T06:25:45.202Z,6224.00
2018-08-22T06:26:45.288Z,6272.00
2018-08-22T06:27:45.306Z,6316.00
2018-08-22T06:28:45.358Z,6376.00
2018-08-22T06:29:45.409Z,6420.00
2018-08-22T06:30:45.461Z,6476.00
2018-08-22T06:31:45.538Z,6524.00
2018-08-22T06:32:45.576Z,6580.00
2018-08-22T06:33:45.611Z,6640.00
2018-08-22T06:34:45.668Z,6704.00
2018-08-22T06:35:45.714Z,6768.00
2018-08-22T06:36:45.789Z,6836.00
2018-08-22T06:37:45.836Z,6904.00
2018-08-22T06:38:45.870Z,9784.00
2018-08-22T06:39:45.924Z,18400.00
2018-08-22T06:40:45.970Z,21056.00
2018-08-22T06:41:46.049Z,20960.00
2018-08-22T06:42:46.097Z,20672.00
2018-08-22T06:43:46.127Z,21856.00
2018-08-22T06:44:46.175Z,22752.00
2018-08-22T06:45:46.230Z,22624.00
2018-08-22T06:46:46.279Z,22528.00
2018-08-22T06:47:46.355Z,23296.00
2018-08-22T06:48:46.385Z,22976.00
2018-08-22T06:49:46.435Z,22560.00
2018-08-22T06:50:46.489Z,23296.00
2018-08-22T06:51:46.539Z,25120.00
2018-08-22T06:52:46.626Z,23904.00
2018-08-22T06:53:46.644Z,23904.00
2018-08-22T06:54:46.742Z,24032.00
2018-08-22T06:55:46.753Z,24672.00
2018-08-22T06:56:46.798Z,25888.00
2018-08-22T06:57:46.875Z,25760.00
2018-08-22T06:58:46.927Z,25248.00
2018-08-22T06:59:46.955Z,25856.00
2018-08-22T07:00:47.009Z,25856.00
2018-08-22T07:01:47.058Z,26848.00
2018-08-22T07:02:47.111Z,28576.00
2018-08-22T07:03:47.201Z,28512.00
2018-08-22T07:04:47.217Z,28448.00
2018-08-22T07:05:47.272Z,29216.00
2018-08-22T07:06:47.327Z,28192.00
2018-08-22T07:07:47.376Z,29440.00
2018-08-22T07:08:47.457Z,33472.00
2018-08-22T07:09:47.507Z,32608.00
2018-08-22T07:10:47.537Z,31296.00
2018-08-22T07:11:47.589Z,33024.00
2018-08-22T07:12:47.643Z,33824.00
2018-08-22T07:13:47.729Z,32384.00
2018-08-22T07:14:47.753Z,32000.00
2018-08-22T07:15:47.804Z,33760.00
2018-08-22T07:16:47.859Z,34336.00
2018-08-22T07:17:47.915Z,34080.00
2018-08-22T07:18:47.992Z,35680.00
2018-08-22T07:19:48.047Z,38336.00
2018-08-22T07:20:48.108Z,35584.00
2018-08-22T07:21:48.138Z,33408.00
2018-08-22T07:22:48.184Z,35872.00
2018-08-22T07:23:48.263Z,39520.00
2018-08-22T07:24:48.330Z,42176.00
2018-08-22T07:25:48.354Z,42080.00
2018-08-22T07:26:48.403Z,40352.00
2018-08-22T07:27:48.458Z,40992.00
2018-08-22T07:28:48.523Z,41824.00
2018-08-22T07:29:48.592Z,41280.00
2018-08-22T07:30:48.628Z,40800.00
2018-08-22T07:31:48.677Z,42784.00
2018-08-22T07:32:48.733Z,46208.00
2018-08-22T07:33:48.785Z,46976.00
2018-08-22T07:34:48.872Z,46016.00
2018-08-22T07:35:48.919Z,45120.00
2018-08-22T07:36:48.953Z,45600.00
2018-08-22T07:37:49.006Z,46080.00
2018-08-22T07:38:49.066Z,46688.00
2018-08-22T07:39:49.146Z,47616.00
2018-08-22T07:40:49.179Z,49056.00
2018-08-22T07:41:49.229Z,48544.00
2018-08-22T07:42:49.284Z,45088.00
2018-08-22T07:43:49.342Z,43200.00
2018-08-22T07:44:49.417Z,46752.00
2018-08-22T07:45:49.454Z,51968.00
2018-08-22T07:46:49.510Z,55296.00
2018-08-22T07:47:49.563Z,56480.00
2018-08-22T07:48:49.618Z,56608.00
2018-08-22T07:49:49.700Z,57728.00
2018-08-22T07:50:49.759Z,59584.00
2018-08-22T07:51:49.787Z,55840.00
2018-08-22T07:52:49.844Z,50624.00
2018-08-22T07:53:49.896Z,51008.00
2018-08-22T07:54:49.954Z,58688.00
2018-08-22T07:55:50.034Z,62944.00
2018-08-22T07:56:50.066Z,58592.00
2018-08-22T07:57:50.121Z,54464.00
2018-08-22T07:58:50.178Z,61440.00
2018-08-22T07:59:50.261Z,70304.00
2018-08-22T08:00:50.316Z,71392.00
2018-08-22T08:01:50.382Z,65184.00
2018-08-22T08:02:50.401Z,59040.00
2018-08-22T08:03:50.460Z,55744.00
2018-08-22T08:04:50.541Z,59840.00
2018-08-22T08:05:50.596Z,67136.00
2018-08-22T08:06:50.657Z,72864.00
2018-08-22T08:07:50.683Z,75008.00
2018-08-22T08:08:50.755Z,72768.00
2018-08-22T08:09:50.798Z,64576.00
2018-08-22T08:10:50.907Z,61696.00
2018-08-22T08:11:50.910Z,68192.00
2018-08-22T08:12:50.964Z,71616.00
2018-08-22T08:13:51.024Z,68544.00
2018-08-22T08:14:51.079Z,66432.00
2018-08-22T08:15:51.170Z,67840.00
2018-08-22T08:16:51.206Z,71008.00
2018-08-22T08:17:51.247Z,70016.00
2018-08-22T08:18:51.303Z,64448.00
2018-08-22T08:19:51.363Z,60928.00
2018-08-22T08:20:51.437Z,58784.00
2018-08-22T08:21:51.495Z,61280.00
2018-08-22T08:22:51.526Z,65920.00
2018-08-22T08:23:51.586Z,71424.00
2018-08-22T08:24:51.640Z,73120.00
2018-08-22T08:25:51.698Z,71744.00
2018-08-22T08:26:51.775Z,72512.00
2018-08-22T08:27:51.807Z,74464.00
2018-08-22T08:28:51.864Z,75488.00
2018-08-22T08:29:51.920Z,73024.00
2018-08-22T08:30:51.975Z,69376.00
2018-08-22T08:31:52.060Z,68608.00
2018-08-22T08:32:52.086Z,68480.00
2018-08-22T08:33:52.143Z,68000.00
2018-08-22T08:34:52.197Z,70336.00
2018-08-22T08:35:52.374Z,77344.00
2018-08-22T08:36:52.336Z,80320.00
2018-08-22T08:37:52.367Z,76928.00
2018-08-22T08:38:52.419Z,70496.00
2018-08-22T08:39:52.477Z,68608.00
2018-08-22T08:40:52.531Z,72768.00
2018-08-22T08:41:52.610Z,81600.00
2018-08-22T08:42:52.671Z,85024.00
2018-08-22T08:43:52.700Z,81600.00
2018-08-22T08:44:52.755Z,77920.00
2018-08-22T08:45:52.831Z,77248.00
2018-08-22T08:46:52.897Z,76160.00
2018-08-22T08:47:52.925Z,73440.00
2018-08-22T08:48:52.980Z,74624.00
2018-08-22T08:49:53.034Z,78208.00
2018-08-22T08:50:53.089Z,79616.00
2018-08-22T08:51:53.273Z,78848.00
2018-08-22T08:52:53.201Z,76928.00
2018-08-22T08:53:53.265Z,76000.00
2018-08-22T08:54:53.868Z,74528.00
2018-08-22T08:55:53.393Z,72416.00
2018-08-22T08:56:53.459Z,75040.00
2018-08-22T08:57:53.504Z,80128.00
2018-08-22T08:58:53.537Z,84192.00
2018-08-22T08:59:53.596Z,82848.00
2018-08-22T09:00:53.648Z,80288.00
2018-08-22T09:01:53.706Z,75008.00
2018-08-22T09:02:53.794Z,70304.00
2018-08-22T09:03:53.920Z,67488.00
2018-08-22T09:04:53.874Z,65024.00
2018-08-22T09:05:53.938Z,69504.00
2018-08-22T09:06:53.988Z,81408.00
2018-08-22T09:07:54.047Z,88032.00
2018-08-22T09:08:54.122Z,89280.00
2018-08-22T09:09:54.155Z,83744.00
2018-08-22T09:10:54.214Z,77824.00
2018-08-22T09:11:54.269Z,73376.00
2018-08-22T09:12:54.324Z,73408.00
2018-08-22T09:13:54.405Z,76192.00
2018-08-22T09:15:54.495Z,86400.00
2018-08-22T09:16:54.550Z,89664.00
2018-08-22T09:17:54.603Z,87168.00
2018-08-22T09:18:54.685Z,79200.00
2018-08-22T09:19:54.758Z,73728.00
2018-08-22T09:20:54.792Z,74464.00
2018-08-22T09:21:54.830Z,79328.00
2018-08-22T09:22:54.891Z,86592.00
2018-08-22T09:23:54.983Z,90144.00
2018-08-22T09:24:55.023Z,89984.00
2018-08-22T09:25:55.056Z,89024.00
2018-08-22T09:26:55.108Z,84768.00
2018-08-22T09:27:55.165Z,79424.00
2018-08-22T09:28:55.263Z,80128.00
2018-08-22T09:29:55.280Z,84672.00
2018-08-22T09:30:55.334Z,91456.00
2018-08-22T09:31:55.391Z,94688.00
2018-08-22T09:32:55.444Z,93440.00
2018-08-22T09:33:55.535Z,90496.00
2018-08-22T09:34:55.560Z,86816.00
2018-08-22T09:35:55.618Z,84256.00
2018-08-22T09:36:55.697Z,83104.00
2018-08-22T09:37:55.726Z,80544.00
2018-08-22T09:38:55.824Z,76160.00
2018-08-22T09:39:55.843Z,75264.00
2018-08-22T09:40:55.898Z,77824.00
2018-08-22T09:41:55.955Z,81632.00
2018-08-22T09:42:56.017Z,90432.00
2018-08-22T09:43:56.096Z,97760.00
2018-08-22T09:44:56.179Z,99360.00
2018-08-22T09:45:56.180Z,100608.00
2018-08-22T09:46:56.236Z,104896.00
2018-08-22T09:47:56.297Z,107264.00
2018-08-22T09:48:56.352Z,106688.00
2018-08-22T09:49:56.436Z,98048.00
2018-08-22T09:50:56.485Z,89696.00
2018-08-22T09:51:56.523Z,84832.00
2018-08-22T09:52:56.581Z,86496.00
2018-08-22T09:53:56.639Z,92800.00
2018-08-22T09:54:56.725Z,98208.00
2018-08-22T09:55:56.755Z,97856.00
2018-08-22T09:56:56.811Z,93504.00
2018-08-22T09:57:56.870Z,92480.00
2018-08-22T09:58:56.926Z,94496.00
2018-08-22T09:59:57.057Z,100032.00
2018-08-22T10:00:57.068Z,101312.00
2018-08-22T10:01:57.123Z,98688.00
2018-08-22T10:02:57.157Z,92864.00
2018-08-22T10:03:57.217Z,87072.00
2018-08-22T10:04:57.272Z,88672.00
2018-08-22T10:05:57.352Z,98368.00
2018-08-22T10:06:57.430Z,108672.00
2018-08-22T10:07:57.444Z,112224.00
2018-08-22T10:08:57.502Z,111392.00
2018-08-22T10:09:57.594Z,108224.00
2018-08-22T10:10:57.644Z,103712.00
2018-08-22T10:11:57.676Z,98944.00
2018-08-22T10:12:57.730Z,97376.00
2018-08-22T10:13:57.790Z,93600.00
2018-08-22T10:14:57.848Z,91296.00
2018-08-22T10:15:57.942Z,88992.00
2018-08-22T10:16:57.963Z,94336.00
2018-08-22T10:17:58.024Z,103072.00
2018-08-22T10:18:58.084Z,106848.00
2018-08-22T10:19:58.141Z,106528.00
2018-08-22T10:20:58.225Z,103552.00
2018-08-22T10:21:58.254Z,101344.00
2018-08-22T10:22:58.308Z,98752.00
2018-08-22T10:23:58.371Z,101504.00
2018-08-22T10:24:58.423Z,104480.00
2018-08-22T10:25:58.509Z,104864.00
2018-08-22T10:26:58.608Z,105664.00
2018-08-22T10:27:58.599Z,108864.00
2018-08-22T10:30:35.147Z,110368.00
2018-08-22T10:31:35.180Z,107520.00
2018-08-22T10:32:35.269Z,109120.00
2018-08-22T10:33:35.295Z,111328.00
2018-08-22T10:34:35.382Z,111040.00
2018-08-22T10:35:35.409Z,104736.00
2018-08-22T10:36:35.488Z,99328.00
2018-08-22T10:37:35.531Z,98336.00
2018-08-22T10:38:35.617Z,100544.00
2018-08-22T10:39:35.691Z,102144.00
2018-08-22T10:40:35.703Z,104192.00
2018-08-22T10:41:35.782Z,104704.00
2018-08-22T10:42:35.812Z,100896.00
2018-08-22T10:43:35.868Z,98336.00
2018-08-22T10:44:36.023Z,94048.00
2018-08-22T10:45:35.978Z,89760.00
2018-08-22T10:46:36.037Z,90336.00
2018-08-22T10:47:36.092Z,94336.00
2018-08-22T10:48:36.149Z,104864.00
2018-08-22T10:49:36.229Z,111104.00
2018-08-22T10:50:36.312Z,112832.00
2018-08-22T10:51:36.321Z,112576.00
2018-08-22T10:52:36.398Z,112864.00
2018-08-22T10:53:36.430Z,113920.00
2018-08-22T10:54:36.485Z,114592.00
2018-08-22T10:55:36.565Z,112160.00
2018-08-22T10:56:36.600Z,111296.00
2018-08-22T10:57:36.654Z,107072.00
2018-08-22T10:58:36.710Z,100032.00
2018-08-22T10:59:36.767Z,97760.00
2018-08-22T11:00:36.852Z,96832.00
2018-08-22T11:01:36.882Z,97312.00
2018-08-22T11:02:36.935Z,99552.00
2018-08-22T11:03:36.997Z,103040.00
2018-08-22T11:04:37.050Z,104992.00
2018-08-22T11:05:37.148Z,106624.00
2018-08-22T11:06:37.165Z,110368.00
2018-08-22T11:07:37.221Z,113824.00
2018-08-22T11:08:37.275Z,115712.00
2018-08-22T11:09:37.338Z,115872.00
2018-08-22T11:10:37.422Z,110432.00
2018-08-22T11:11:37.448Z,104064.00
2018-08-22T11:12:37.504Z,103680.00
2018-08-22T11:13:37.561Z,104512.00
2018-08-22T11:14:37.618Z,105344.00
2018-08-22T11:15:37.705Z,108544.00
2018-08-22T11:16:37.730Z,112384.00
2018-08-22T11:17:37.810Z,112576.00
2018-08-22T11:18:37.848Z,110656.00
2018-08-22T11:19:37.904Z,112288.00
2018-08-22T11:20:37.959Z,116448.00
2018-08-22T11:21:38.017Z,120608.00
2018-08-22T11:22:38.096Z,121024.00
2018-08-22T11:23:38.134Z,120384.00
2018-08-22T11:24:38.190Z,118880.00
2018-08-22T11:25:38.243Z,110560.00
2018-08-22T11:26:38.310Z,101088.00
2018-08-22T11:27:38.403Z,99840.00
2018-08-22T11:28:38.416Z,98336.00
2018-08-22T11:29:38.478Z,99072.00
2018-08-22T11:30:38.537Z,102592.00
2018-08-22T11:31:38.594Z,111968.00
2018-08-22T11:32:38.693Z,119776.00
2018-08-22T11:33:38.707Z,119616.00
2018-08-22T11:34:38.768Z,117312.00
2018-08-22T11:35:38.824Z,113408.00
2018-08-22T11:36:38.885Z,110784.00
2018-08-22T11:37:38.977Z,110464.00
2018-08-22T11:38:39.012Z,112288.00
2018-08-22T11:39:39.059Z,107968.00
2018-08-22T11:40:39.117Z,100960.00
2018-08-22T11:41:39.176Z,95872.00
2018-08-22T11:42:39.266Z,92608.00
2018-08-22T11:43:39.297Z,91520.00
2018-08-22T11:44:39.353Z,94240.00
2018-08-22T11:45:39.412Z,100512.00
2018-08-22T11:46:39.473Z,106336.00
2018-08-22T11:47:39.552Z,114016.00
2018-08-22T11:48:40.449Z,122016.00
2018-08-22T11:49:39.645Z,122304.00
2018-08-22T11:50:39.703Z,121440.00
2018-08-22T11:51:39.763Z,119040.00
2018-08-22T11:52:39.853Z,111840.00
2018-08-22T11:53:39.879Z,104032.00
2018-08-22T11:54:39.939Z,102592.00
2018-08-22T11:55:39.999Z,101248.00
2018-08-22T11:56:40.059Z,102240.00
2018-08-22T11:57:40.141Z,101408.00
2018-08-22T11:58:40.197Z,96480.00
2018-08-22T11:59:40.235Z,93856.00
2018-08-22T12:00:40.291Z,91712.00
2018-08-22T12:01:40.350Z,93408.00
2018-08-22T12:02:40.404Z,99552.00
2018-08-22T12:03:40.493Z,101504.00
2018-08-22T12:04:40.529Z,102464.00
2018-08-22T12:05:40.588Z,102496.00
2018-08-22T12:06:40.645Z,100992.00
2018-08-22T12:07:40.712Z,98656.00
2018-08-22T12:08:40.788Z,99168.00
2018-08-22T12:09:40.827Z,101152.00
2018-08-22T12:10:40.949Z,100512.00
2018-08-22T12:11:40.947Z,99008.00
2018-08-22T12:12:41.002Z,94816.00
2018-08-22T12:13:41.085Z,88736.00
2018-08-22T12:14:41.123Z,85056.00
2018-08-22T12:15:41.181Z,86144.00
2018-08-22T12:16:41.240Z,88704.00
2018-08-22T12:17:41.300Z,89472.00
2018-08-22T12:18:41.391Z,91552.00
2018-08-22T12:19:41.419Z,95808.00